Portada
METAR-TAF:

METAR-TAF

Aeroports :

Bahawalpur, Pakistan

latitud: 29-20-53N, longitud: 71-43-04E, altitud: 119 m

METAR: manca

Hora: 19:36 (14:36 UTC)

Pronòstic

L'informe es va fer fa 4 hores i 51 minuts, a les 09:45 UTC
Pronòstic vàlid del 17 a les 12 UTC al 18 a les 06 UTC
Vent 5 kt del Sud
Visibilitat: 4000 m
Escasses núvols a una alçada de 12000 ft
fum
Probabilitat 30% :
Temporalment
l' 18 a les 01 UTC al 18 a les 05 UTC
Vent kt del Nord
Visibilitat: 1500 m
Núvols disperses a una alçada de 10000 ft
fum

TAF: OPBW 170945Z 1712/1806 18005KT 4000 FU FEW120 TN09/1801Z PROB30 TEMPO 1801/1805 00000KT 1500 FU SCT100

Observacions i pronòstics meteorològics de més de 4000 aeroports (METAR i TAF).

Les estacions disponibles són els punts grocs i vermells al mapa.

Posi el ratolí al punt desitjat per veure el nom de l'estació.

Feu clic per veure les observacions i els pronòstics meteorològics.

Per canviar el mapa: feu clic els botons verds amb una creu de color negre per apropar; al botó verd amb un guió per allunyar la imatge; o en les fletxes verdes per a mapes adjacents.


METAR-TAF: